Time;durP1;ratioP1;P1;durP2;ratioP2;P2;SDS_P1;SDS_P2;PMS_P1;PMS_P2;Temp;Humidity;BMP_temperature;BMP_pressure;BME280_temperature;BME280_humidity;BME280_pressure;Samples;Min_cycle;Max_cycle;Signal;HPM_P1;HPM_P2
2023/03/02 00:02:10;;;;;;;3.13;1.95;;;;;;;-2.99;74.34;98330.03;5092628;28;20082;-63
2023/03/02 00:04:49;;;;;;;3.92;2.40;;;;;;;-2.94;73.62;98316.53;5091101;28;20148;-63
2023/03/02 00:07:31;;;;;;;7.30;2.50;;;;;;;-3.04;73.79;98322.78;5074053;28;20547;-64
2023/03/02 00:09:57;;;;;;;4.53;2.45;;;;;;;-2.98;73.66;98316.06;5092354;28;20139;-63
2023/03/02 00:12:26;;;;;;;3.03;2.30;;;;;;;-2.95;73.23;98317.50;5090879;28;20537;-62
2023/03/02 00:14:52;;;;;;;3.72;2.00;;;;;;;-2.98;72.04;98322.06;5090903;28;20048;-62
2023/03/02 00:17:17;;;;;;;4.82;2.50;;;;;;;-3.04;72.03;98316.78;5092231;28;20101;-64
2023/03/02 00:19:43;;;;;;;3.88;2.15;;;;;;;-3.00;72.27;98337.00;5092013;28;20044;-64
2023/03/02 00:22:09;;;;;;;5.40;2.38;;;;;;;-2.93;72.42;98338.91;5092261;28;20031;-64
2023/03/02 00:24:35;;;;;;;2.10;1.90;;;;;;;-3.04;70.15;98338.31;5091896;28;20528;-63
2023/03/02 00:27:00;;;;;;;3.50;2.10;;;;;;;-3.09;69.58;98340.66;5090688;28;20138;-63
2023/03/02 00:29:26;;;;;;;2.08;1.60;;;;;;;-3.26;69.24;98354.72;5090375;28;20413;-64
2023/03/02 00:31:52;;;;;;;3.50;2.20;;;;;;;-3.49;71.48;98352.16;5091901;28;20494;-65
2023/03/02 00:34:17;;;;;;;3.92;2.58;;;;;;;-3.61;72.04;98350.94;5090348;28;20079;-65
2023/03/02 00:36:43;;;;;;;2.75;2.38;;;;;;;-3.69;72.41;98352.59;5091598;28;20055;-65
2023/03/02 00:39:09;;;;;;;4.43;2.90;;;;;;;-3.74;73.32;98359.25;5090148;28;20058;-64
2023/03/02 00:41:34;;;;;;;5.20;2.65;;;;;;;-3.85;73.51;98363.06;5056778;28;20161;-63
2023/03/02 00:44:00;;;;;;;3.90;2.65;;;;;;;-3.92;74.38;98365.50;5090252;28;20413;-64
2023/03/02 00:46:27;;;;;;;5.25;2.97;;;;;;;-3.83;73.39;98355.09;5091632;28;20505;-63
2023/03/02 00:48:53;;;;;;;3.28;2.28;;;;;;;-3.92;73.16;98346.56;5073542;28;20455;-63
2023/03/02 00:51:19;;;;;;;2.22;1.83;;;;;;;-3.98;72.86;98355.81;5090142;28;20151;-64
2023/03/02 00:53:45;;;;;;;5.38;2.33;;;;;;;-3.89;72.50;98361.75;5089908;28;20036;-64
2023/03/02 00:56:11;;;;;;;3.60;2.40;;;;;;;-3.80;72.76;98352.97;5091084;28;20055;-62
2023/03/02 00:58:42;;;;;;;7.25;2.72;;;;;;;-3.75;72.83;98361.03;5073920;28;20493;-64
2023/03/02 01:01:10;;;;;;;6.28;2.97;;;;;;;-3.86;72.24;98352.84;5090139;28;20521;-64
2023/03/02 01:03:39;;;;;;;4.40;2.53;;;;;;;-3.94;72.71;98372.66;5090074;28;20123;-65
2023/03/02 01:06:12;;;;;;;6.45;2.85;;;;;;;-4.00;72.57;98377.66;5090541;28;20490;-64
2023/03/02 01:08:37;;;;;;;6.10;2.58;;;;;;;-4.08;72.76;98378.53;5091562;28;20039;-64
2023/03/02 01:11:12;;;;;;;3.47;2.25;;;;;;;-4.16;74.08;98379.34;5089226;28;20039;-65
2023/03/02 01:13:37;;;;;;;5.78;2.40;;;;;;;-4.22;74.54;98374.84;5091593;28;20509;-64
2023/03/02 01:16:05;;;;;;;3.88;2.40;;;;;;;-4.18;74.44;98365.78;5090169;28;20092;-64
2023/03/02 01:18:31;;;;;;;3.08;2.30;;;;;;;-4.16;74.46;98361.25;5090836;28;20127;-63
2023/03/02 01:21:09;;;;;;;4.18;2.70;;;;;;;-4.19;74.02;98371.94;5091240;28;20458;-64
2023/03/02 01:23:35;;;;;;;3.90;2.42;;;;;;;-4.17;74.82;98367.41;5073107;28;20063;-63
2023/03/02 01:26:01;;;;;;;4.70;2.65;;;;;;;-4.15;73.99;98354.28;5073294;28;20413;-63
2023/03/02 01:28:27;;;;;;;3.08;2.20;;;;;;;-4.15;74.50;98356.88;5089881;28;20051;-63
2023/03/02 01:30:53;;;;;;;3.88;2.55;;;;;;;-4.13;74.06;98350.56;5090190;28;20047;-64
2023/03/02 01:33:20;;;;;;;5.00;2.35;;;;;;;-4.06;73.96;98375.75;5091297;28;20043;-64
2023/03/02 01:35:46;;;;;;;5.05;2.75;;;;;;;-4.03;73.54;98376.25;5091107;28;20078;-64
2023/03/02 01:38:12;;;;;;;6.78;2.90;;;;;;;-3.97;73.99;98401.47;5089870;28;20032;-64
2023/03/02 01:40:37;;;;;;;5.55;2.50;;;;;;;-3.91;73.19;98392.22;5090758;28;20046;-66
2023/03/02 01:43:10;;;;;;;4.82;3.03;;;;;;;-3.79;73.04;98390.06;5091357;28;20044;-63
2023/03/02 01:45:39;;;;;;;5.03;2.80;;;;;;;-3.76;73.00;98385.34;5056004;28;20059;-64
2023/03/02 01:48:05;;;;;;;4.63;2.78;;;;;;;-3.73;72.96;98389.38;5089820;28;20211;-63
2023/03/02 01:50:30;;;;;;;3.78;2.53;;;;;;;-3.76;72.11;98397.47;5089360;28;20052;-63
2023/03/02 01:52:58;;;;;;;6.50;3.03;;;;;;;-3.70;72.54;98391.63;5073248;28;20048;-63
2023/03/02 01:55:25;;;;;;;5.40;2.30;;;;;;;-3.69;71.21;98396.63;5072157;28;20044;-64
2023/03/02 01:57:53;;;;;;;2.53;2.10;;;;;;;-3.63;71.34;98397.72;5056367;28;20502;-64
2023/03/02 02:00:24;;;;;;;6.40;2.50;;;;;;;-3.53;70.67;98397.50;5069270;28;20045;-63
2023/03/02 02:02:50;;;;;;;4.18;2.50;;;;;;;-3.53;70.23;98398.31;5069498;28;20536;-63
2023/03/02 02:05:23;;;;;;;8.20;3.03;;;;;;;-3.43;70.06;98395.50;5086182;28;20186;-64
2023/03/02 02:07:49;;;;;;;3.88;1.80;;;;;;;-3.43;70.18;98396.31;5056366;28;20040;-64
2023/03/02 02:10:16;;;;;;;5.97;2.40;;;;;;;-3.50;70.19;98405.75;5093098;28;20047;-63
2023/03/02 02:12:42;;;;;;;5.90;3.25;;;;;;;-3.48;69.84;98390.81;5076283;28;20402;-63
2023/03/02 02:15:28;;;;;;;4.90;2.25;;;;;;;-3.64;69.38;98374.59;5093526;28;20455;-63
2023/03/02 02:17:54;;;;;;;2.85;2.10;;;;;;;-3.61;69.27;98385.41;5092949;28;20509;-63
2023/03/02 02:20:34;;;;;;;3.92;2.15;;;;;;;-3.60;69.55;98384.44;5072470;28;20146;-64
2023/03/02 02:23:04;;;;;;;4.70;2.47;;;;;;;-3.52;68.66;98401.72;5072991;28;20200;-63
2023/03/02 02:25:42;;;;;;;3.15;1.98;;;;;;;-3.62;69.06;98407.09;5091553;28;20048;-63
2023/03/02 02:28:17;;;;;;;7.55;2.47;;;;;;;-3.60;69.41;98410.31;5076237;28;20052;-62
2023/03/02 02:30:44;;;;;;;3.03;1.85;;;;;;;-3.62;68.68;98412.28;5076050;28;20096;-63
2023/03/02 02:33:14;;;;;;;4.45;2.45;;;;;;;-3.60;68.77;98415.50;5092907;28;20127;-63
2023/03/02 02:35:40;;;;;;;3.03;2.08;;;;;;;-3.58;68.60;98407.59;5075547;28;20040;-62
2023/03/02 02:38:07;;;;;;;3.45;2.13;;;;;;;-3.57;69.21;98422.94;5092805;28;20408;-63
2023/03/02 02:40:43;;;;;;;2.90;2.20;;;;;;;-3.62;69.32;98404.50;5092323;28;20584;-63
2023/03/02 02:43:14;;;;;;;3.22;2.22;;;;;;;-3.70;69.01;98422.69;5092823;28;20048;-62
2023/03/02 02:45:39;;;;;;;4.03;1.88;;;;;;;-3.74;68.77;98421.41;5092256;28;20044;-63
2023/03/02 02:48:10;;;;;;;1.85;1.42;;;;;;;-3.77;68.12;98413.97;5075731;28;20044;-63
2023/03/02 02:50:36;;;;;;;1.55;1.30;;;;;;;-3.77;67.98;98434.69;5092386;28;20439;-63
2023/03/02 02:53:06;;;;;;;3.75;1.75;;;;;;;-3.86;67.94;98435.72;5075931;28;20040;-63
2023/03/02 02:55:33;;;;;;;2.10;1.43;;;;;;;-3.84;67.46;98442.34;5092655;28;20087;-65
2023/03/02 02:58:01;;;;;;;3.45;1.70;;;;;;;-3.89;67.91;98445.41;5075735;28;20294;-64
2023/03/02 03:00:27;;;;;;;3.38;1.40;;;;;;;-3.79;68.30;98449.63;5075461;28;20139;-63
2023/03/02 03:03:07;;;;;;;4.10;2.22;;;;;;;-3.82;68.24;98445.56;5092661;28;20147;-64
2023/03/02 03:05:33;;;;;;;2.47;1.70;;;;;;;-3.79;67.63;98457.38;5075370;28;20056;-64
2023/03/02 03:08:29;;;;;;;2.65;1.63;;;;;;;-3.78;67.71;98448.63;5093798;28;20077;-62
2023/03/02 03:10:55;;;;;;;1.50;1.38;;;;;;;-3.76;67.86;98446.69;5092093;28;20062;-64
2023/03/02 03:13:21;;;;;;;2.88;1.83;;;;;;;-3.78;67.32;98439.06;5058475;28;20089;-62
2023/03/02 03:15:47;;;;;;;2.80;1.55;;;;;;;-3.84;67.63;98450.09;5075306;28;20082;-64
2023/03/02 03:18:13;;;;;;;3.22;1.70;;;;;;;-3.81;67.44;98451.56;5074995;28;20036;-64
2023/03/02 03:20:40;;;;;;;4.63;2.30;;;;;;;-3.77;66.93;98437.28;5074840;28;20112;-65
2023/03/02 03:23:06;;;;;;;1.50;1.25;;;;;;;-3.78;67.52;98425.31;5093678;28;20397;-63
2023/03/02 03:25:33;;;;;;;2.38;1.40;;;;;;;-3.79;66.75;98439.25;5074822;28;20085;-65
2023/03/02 03:28:02;;;;;;;1.65;1.30;;;;;;;-3.79;67.25;98444.44;5091993;28;20036;-64
2023/03/02 03:30:28;;;;;;;1.85;1.60;;;;;;;-3.79;67.68;98434.06;5091601;28;20051;-63
2023/03/02 03:32:54;;;;;;;5.13;1.83;;;;;;;-3.75;67.05;98435.34;5074976;28;20405;-64
2023/03/02 03:35:20;;;;;;;5.53;1.88;;;;;;;-3.73;67.15;98430.81;5091760;28;20066;-64
2023/03/02 03:37:47;;;;;;;2.85;1.73;;;;;;;-3.75;66.32;98435.34;5057975;28;20070;-64
2023/03/02 03:40:14;;;;;;;1.40;1.30;;;;;;;-3.69;66.58;98425.09;5091296;28;20513;-63
2023/03/02 03:42:42;;;;;;;2.33;1.40;;;;;;;-3.69;66.31;98425.09;5091543;28;20048;-63
2023/03/02 03:45:08;;;;;;;2.22;1.50;;;;;;;-3.71;66.78;98423.66;5092821;28;20153;-66
2023/03/02 03:47:34;;;;;;;4.03;1.70;;;;;;;-3.79;66.51;98423.72;5091289;28;20491;-64
2023/03/02 03:50:02;;;;;;;2.97;1.88;;;;;;;-3.76;66.40;98421.59;5090944;28;20052;-63
2023/03/02 03:52:31;;;;;;;3.80;1.65;;;;;;;-3.71;65.88;98432.22;5091378;28;20409;-64
2023/03/02 03:55:06;;;;;;;3.00;1.65;;;;;;;-3.61;66.09;98428.66;5092360;28;20052;-63
2023/03/02 03:57:32;;;;;;;3.00;1.40;;;;;;;-3.63;66.20;98430.59;5091089;28;20040;-64
2023/03/02 03:59:58;;;;;;;1.23;1.17;;;;;;;-3.68;66.25;98431.91;5092057;28;20052;-63
2023/03/02 04:02:24;;;;;;;2.83;1.30;;;;;;;-3.67;65.35;98438.69;5074306;28;20460;-63
2023/03/02 04:04:50;;;;;;;2.45;1.48;;;;;;;-3.64;65.94;98432.38;5070527;28;20048;-65
2023/03/02 04:07:17;;;;;;;3.75;1.90;;;;;;;-3.58;65.84;98433.47;5054359;28;20052;-63
2023/03/02 04:09:48;;;;;;;5.63;1.70;;;;;;;-3.61;65.21;98444.19;5083425;28;20101;-64
2023/03/02 04:12:14;;;;;;;4.32;2.13;;;;;;;-3.59;65.63;98434.44;5074295;28;20039;-64
2023/03/02 04:14:48;;;;;;;2.88;1.92;;;;;;;-3.76;65.52;98424.19;5089713;28;20134;-63
2023/03/02 04:17:14;;;;;;;3.13;1.67;;;;;;;-3.69;66.14;98442.44;5073550;28;20135;-64
2023/03/02 04:19:44;;;;;;;1.65;1.30;;;;;;;-3.72;65.83;98435.81;5073937;28;20044;-63
2023/03/02 04:22:10;;;;;;;3.92;1.55;;;;;;;-3.69;65.77;98432.06;5073957;28;20043;-64
2023/03/02 04:24:36;;;;;;;1.40;1.23;;;;;;;-3.72;66.06;98437.59;5091684;28;20036;-64
2023/03/02 04:27:03;;;;;;;2.20;1.60;;;;;;;-3.76;65.70;98434.53;5090715;28;20116;-64
2023/03/02 04:29:31;;;;;;;2.38;1.40;;;;;;;-3.70;65.58;98446.00;5090396;28;20413;-63
2023/03/02 04:31:58;;;;;;;1.85;1.38;;;;;;;-3.75;64.59;98459.44;5089752;28;20040;-63
2023/03/02 04:34:25;;;;;;;2.42;1.80;;;;;;;-3.69;65.09;98452.78;5090314;28;20043;-64
2023/03/02 04:36:52;;;;;;;3.33;1.50;;;;;;;-3.81;65.25;98460.13;5090590;28;20040;-63
2023/03/02 04:39:18;;;;;;;2.13;1.80;;;;;;;-3.78;64.97;98467.56;5089899;28;20052;-64
2023/03/02 04:41:48;;;;;;;4.20;1.80;;;;;;;-3.68;65.36;98475.94;5073485;28;20032;-65
2023/03/02 04:44:15;;;;;;;2.40;1.80;;;;;;;-3.75;65.27;98490.53;5073292;28;20048;-66
2023/03/02 04:46:40;;;;;;;5.65;2.08;;;;;;;-3.73;65.69;98483.41;5053392;28;20139;-63
2023/03/02 04:49:06;;;;;;;1.95;1.70;;;;;;;-3.72;65.39;98492.78;5070044;28;20147;-63
2023/03/02 04:51:39;;;;;;;4.43;1.77;;;;;;;-3.65;65.07;98498.09;5090035;28;20524;-64
2023/03/02 04:54:09;;;;;;;1.60;1.50;;;;;;;-3.73;65.38;98506.72;5091492;28;20055;-65
2023/03/02 04:56:34;;;;;;;3.78;1.63;;;;;;;-3.72;64.57;98486.81;5089856;28;20428;-64
2023/03/02 04:59:00;;;;;;;2.78;1.48;;;;;;;-3.63;64.42;98505.72;5090095;28;20055;-63
2023/03/02 05:01:26;;;;;;;2.53;1.50;;;;;;;-3.67;64.61;98511.22;5091160;28;20039;-64
2023/03/02 05:03:52;;;;;;;2.38;1.50;;;;;;;-3.53;64.92;98514.06;5091823;28;20093;-65
2023/03/02 05:06:20;;;;;;;1.85;1.60;;;;;;;-3.64;64.36;98509.28;5091289;28;20624;-62
2023/03/02 05:08:46;;;;;;;2.30;1.73;;;;;;;-3.65;64.25;98524.00;5091594;28;20063;-62
2023/03/02 05:11:23;;;;;;;2.95;1.65;;;;;;;-3.79;65.49;98519.53;5091208;28;20056;-65
2023/03/02 05:13:50;;;;;;;3.58;1.73;;;;;;;-3.74;64.97;98520.63;5089703;28;20206;-66
2023/03/02 05:16:17;;;;;;;1.90;1.70;;;;;;;-3.73;64.72;98521.44;5089171;28;20412;-66
2023/03/02 05:18:43;;;;;;;5.05;2.53;;;;;;;-3.66;65.33;98517.22;5087816;28;20081;-64
2023/03/02 05:21:09;;;;;;;8.38;2.15;;;;;;;-3.59;65.10;98523.31;5088850;28;20052;-63
2023/03/02 05:23:34;;;;;;;7.97;2.22;;;;;;;-3.50;64.69;98524.09;5083066;28;20513;-66
2023/03/02 05:26:00;;;;;;;3.28;2.20;;;;;;;-3.38;64.89;98519.34;5086154;28;20405;-65
2023/03/02 05:28:26;;;;;;;6.10;3.30;;;;;;;-3.37;65.04;98516.59;5084800;28;20091;-63
2023/03/02 05:30:52;;;;;;;4.80;2.72;;;;;;;-3.18;65.08;98517.94;5089160;28;20044;-63
2023/03/02 05:33:18;;;;;;;7.50;2.75;;;;;;;-3.19;64.89;98524.13;5088099;28;20048;-64
2023/03/02 05:35:44;;;;;;;7.75;2.70;;;;;;;-3.23;64.54;98525.44;5085963;28;20040;-65
2023/03/02 05:38:10;;;;;;;6.40;2.40;;;;;;;-3.20;64.20;98523.31;5087718;28;20047;-64
2023/03/02 05:40:37;;;;;;;4.88;2.35;;;;;;;-3.12;63.86;98529.44;5088585;28;20048;-63
2023/03/02 05:43:03;;;;;;;2.97;1.95;;;;;;;-3.10;63.76;98522.28;5089124;28;20062;-63
2023/03/02 05:45:32;;;;;;;3.28;2.10;;;;;;;-2.91;64.45;98518.44;5091295;28;20052;-64
2023/03/02 05:47:57;;;;;;;8.93;4.10;;;;;;;-2.70;63.60;98507.47;5091819;28;20559;-63
2023/03/02 05:50:23;;;;;;;7.00;3.97;;;;;;;-2.51;62.85;98510.34;5090697;28;20072;-62
2023/03/02 05:52:49;;;;;;;8.00;3.00;;;;;;;-2.54;61.96;98509.91;5093919;28;20047;-61
2023/03/02 05:55:16;;;;;;;4.85;2.65;;;;;;;-2.36;62.37;98505.19;5089823;28;20036;-64
2023/03/02 05:57:42;;;;;;;3.47;2.30;;;;;;;-2.32;62.10;98522.06;5091230;28;20047;-63
2023/03/02 06:00:09;;;;;;;6.60;2.55;;;;;;;-2.20;61.82;98516.44;5089821;28;20512;-65
2023/03/02 06:02:38;;;;;;;5.28;2.47;;;;;;;-2.17;62.21;98518.69;5087899;28;20379;-62
2023/03/02 06:05:06;;;;;;;4.30;2.90;;;;;;;-2.06;61.74;98529.44;5087557;28;20052;-64
2023/03/02 06:07:32;;;;;;;5.82;2.85;;;;;;;-2.01;61.90;98522.91;5092022;28;20217;-63
2023/03/02 06:09:58;;;;;;;5.80;3.42;;;;;;;-2.10;61.48;98524.78;5073652;28;20048;-66
2023/03/02 06:12:24;;;;;;;5.82;3.28;;;;;;;-1.89;61.82;98522.28;5091238;28;20503;-64
2023/03/02 06:14:49;;;;;;;7.43;2.70;;;;;;;-1.90;62.21;98525.06;5092604;28;20052;-62
2023/03/02 06:17:15;;;;;;;3.55;2.40;;;;;;;-1.86;61.51;98528.91;5093212;28;20048;-64
2023/03/02 06:19:41;;;;;;;7.82;2.42;;;;;;;-1.80;61.87;98527.41;5090923;28;20056;-63
2023/03/02 06:22:06;;;;;;;6.13;2.33;;;;;;;-1.61;61.25;98524.25;5089958;28;20044;-62
2023/03/02 06:24:32;;;;;;;3.45;2.55;;;;;;;-1.57;61.65;98535.91;5091085;28;20043;-61
2023/03/02 06:26:58;;;;;;;5.88;2.78;;;;;;;-1.58;61.12;98531.69;5072370;28;20167;-63
2023/03/02 06:29:24;;;;;;;8.07;3.30;;;;;;;-1.61;60.97;98529.47;5088587;28;20177;-62
2023/03/02 06:31:49;;;;;;;8.85;4.15;;;;;;;-1.61;60.77;98524.25;5090894;28;20051;-64
2023/03/02 06:34:15;;;;;;;9.60;3.53;;;;;;;-1.58;60.45;98530.91;5090058;28;20048;-63
2023/03/02 06:36:41;;;;;;;6.10;3.50;;;;;;;-1.37;60.29;98536.97;5087875;28;20040;-61
2023/03/02 06:39:14;;;;;;;6.85;3.17;;;;;;;-1.32;59.86;98526.03;5088466;28;20413;-66
2023/03/02 06:41:43;;;;;;;5.07;2.53;;;;;;;-1.40;60.34;98523.53;5088917;28;20063;-63
2023/03/02 06:44:09;;;;;;;6.22;3.33;;;;;;;-1.41;60.10;98514.94;5071709;28;20176;-64
2023/03/02 06:46:36;;;;;;;4.95;2.70;;;;;;;-1.48;59.69;98521.03;5087969;28;20144;-60
2023/03/02 06:49:02;;;;;;;3.40;2.15;;;;;;;-1.37;59.62;98516.16;5039649;28;20089;-62
2023/03/02 06:51:28;;;;;;;5.90;2.70;;;;;;;-1.27;59.65;98500.25;5089943;28;20484;-61
2023/03/02 06:53:53;;;;;;;5.35;2.30;;;;;;;-1.38;59.26;98514.56;5089931;28;20125;-62
2023/03/02 06:56:19;;;;;;;4.32;2.60;;;;;;;-1.32;59.39;98510.44;5091897;28;20055;-64
2023/03/02 06:58:45;;;;;;;6.47;2.95;;;;;;;-1.26;58.87;98511.50;5091319;28;20179;-61
2023/03/02 07:01:11;;;;;;;4.22;2.33;;;;;;;-1.28;58.80;98516.88;5091040;28;20078;-63
2023/03/02 07:03:37;;;;;;;3.72;2.38;;;;;;;-1.20;58.61;98519.38;5089665;28;20051;-61
2023/03/02 07:06:03;;;;;;;3.97;2.45;;;;;;;-1.04;58.16;98510.53;5092254;28;20421;-63
2023/03/02 07:08:29;;;;;;;7.40;3.03;;;;;;;-0.90;57.73;98508.06;5089372;28;20081;-63
2023/03/02 07:10:55;;;;;;;5.57;2.92;;;;;;;-0.82;57.34;98502.75;5092567;28;20059;-61
2023/03/02 07:13:21;;;;;;;4.25;2.25;;;;;;;-0.85;56.88;98501.31;5088778;28;20059;-61
2023/03/02 07:15:46;;;;;;;4.35;2.55;;;;;;;-0.90;57.17;98497.66;5088965;28;20634;-63
2023/03/02 07:18:12;;;;;;;4.15;2.40;;;;;;;-0.97;56.67;98511.41;5088671;28;20135;-64
2023/03/02 07:20:38;;;;;;;2.53;2.00;;;;;;;-1.04;56.51;98520.13;5090109;28;20165;-66
2023/03/02 07:23:04;;;;;;;2.60;1.83;;;;;;;-1.06;55.93;98512.53;5090306;28;20119;-63
2023/03/02 07:25:31;;;;;;;5.82;2.33;;;;;;;-0.93;56.26;98506.66;5084232;28;20476;-64
2023/03/02 07:27:57;;;;;;;2.75;1.83;;;;;;;-0.98;56.13;98508.97;5083222;28;20081;-63
2023/03/02 07:30:23;;;;;;;3.50;1.98;;;;;;;-1.04;56.46;98518.31;5069984;28;20131;-64
2023/03/02 07:32:51;;;;;;;3.15;2.33;;;;;;;-0.84;56.39;98517.75;5028998;28;20853;-62
2023/03/02 07:35:17;;;;;;;7.57;4.88;;;;;;;-0.74;56.63;98506.00;5069352;28;20040;-62
2023/03/02 07:37:43;;;;;;;3.72;2.33;;;;;;;-0.72;55.24;98521.44;5066051;28;20377;-63
2023/03/02 07:40:10;;;;;;;3.75;2.10;;;;;;;-0.76;55.75;98518.44;5068282;28;20538;-62
2023/03/02 07:42:37;;;;;;;6.68;2.83;;;;;;;-0.56;55.95;98512.56;5082675;28;20089;-61
2023/03/02 07:45:05;;;;;;;4.70;3.03;;;;;;;-0.44;54.89;98505.06;5089248;28;20044;-64
2023/03/02 07:47:31;;;;;;;5.13;2.80;;;;;;;-0.43;54.47;98506.69;5086518;28;20039;-66
2023/03/02 07:49:57;;;;;;;6.35;3.17;;;;;;;-0.37;54.54;98505.94;5087025;28;20040;-66
2023/03/02 07:52:23;;;;;;;6.30;2.70;;;;;;;-0.28;54.25;98513.41;5089290;28;20054;-64
2023/03/02 07:54:49;;;;;;;5.07;2.92;;;;;;;-0.19;53.87;98518.50;5089890;28;20054;-63
2023/03/02 07:57:15;;;;;;;4.68;2.20;;;;;;;-0.47;54.39;98512.28;5088815;28;20036;-64
2023/03/02 07:59:42;;;;;;;4.70;2.30;;;;;;;-0.35;54.39;98498.75;5090292;28;20089;-64
2023/03/02 08:02:15;;;;;;;4.60;2.55;;;;;;;-0.14;53.73;98500.50;5088355;28;20063;-64
2023/03/02 08:04:41;;;;;;;2.85;2.35;;;;;;;0.01;52.77;98488.19;5089202;28;20044;-64
2023/03/02 08:07:07;;;;;;;3.13;2.17;;;;;;;0.16;52.79;98483.66;5086693;28;20024;-65
2023/03/02 08:09:33;;;;;;;2.40;2.03;;;;;;;-0.02;51.29;98475.53;5086681;28;20390;-65
2023/03/02 08:11:59;;;;;;;4.72;2.08;;;;;;;0.09;52.28;98472.41;5085813;28;20044;-64
2023/03/02 08:14:24;;;;;;;3.33;2.40;;;;;;;0.29;52.51;98482.09;5087304;28;20078;-65
2023/03/02 08:16:51;;;;;;;6.35;3.03;;;;;;;0.07;52.80;98484.81;5070971;28;20478;-64
2023/03/02 08:19:17;;;;;;;3.78;2.40;;;;;;;-0.08;51.81;98477.09;5089561;28;20048;-65
2023/03/02 08:21:43;;;;;;;4.40;2.30;;;;;;;-0.08;52.55;98469.28;5080055;28;20094;-66
2023/03/02 08:24:10;;;;;;;4.72;2.55;;;;;;;-0.19;52.99;98466.41;5087766;28;20047;-66
2023/03/02 08:26:36;;;;;;;4.13;2.55;;;;;;;-0.07;52.54;98475.28;5070189;28;20089;-64
2023/03/02 08:29:02;;;;;;;3.53;2.10;;;;;;;-0.17;51.49;98470.44;5084598;28;20048;-65
2023/03/02 08:31:28;;;;;;;6.53;2.53;;;;;;;-0.24;51.74;98488.63;5068908;28;20036;-65
2023/03/02 08:33:54;;;;;;;3.38;2.22;;;;;;;0.05;51.91;98484.19;5087046;28;20108;-66
2023/03/02 08:36:20;;;;;;;5.82;2.75;;;;;;;0.06;51.64;98483.19;5085078;28;20044;-65
2023/03/02 08:38:46;;;;;;;3.13;2.22;;;;;;;0.11;51.68;98478.19;5088237;28;20032;-62
2023/03/02 08:41:15;;;;;;;3.10;2.17;;;;;;;-0.10;50.79;98476.47;5084953;28;20098;-66
2023/03/02 08:43:41;;;;;;;5.07;2.83;;;;;;;0.12;51.37;98472.00;5087205;28;20040;-65
2023/03/02 08:46:07;;;;;;;3.78;2.35;;;;;;;0.05;50.81;98484.19;5082774;28;20122;-63
2023/03/02 08:48:33;;;;;;;4.70;1.90;;;;;;;0.05;50.86;98478.97;5090204;28;20032;-65
2023/03/02 08:51:06;;;;;;;3.65;2.03;;;;;;;0.36;50.34;98475.13;5073901;28;20154;-65
2023/03/02 08:53:34;;;;;;;4.35;2.13;;;;;;;0.48;50.07;98478.00;5087273;28;20040;-65
2023/03/02 08:56:00;;;;;;;4.03;1.95;;;;;;;0.48;49.33;98463.16;5087675;28;20139;-64
2023/03/02 08:58:26;;;;;;;4.72;1.83;;;;;;;0.40;49.02;98481.56;5083804;28;20115;-64
2023/03/02 09:00:52;;;;;;;5.38;2.33;;;;;;;0.56;49.25;98483.84;5086852;28;20093;-66
2023/03/02 09:03:18;;;;;;;2.40;2.20;;;;;;;0.58;49.51;98479.22;5084470;28;20032;-65
2023/03/02 09:05:44;;;;;;;3.25;1.80;;;;;;;0.57;49.58;98484.63;5035095;28;20037;-65
2023/03/02 09:08:10;;;;;;;3.70;2.25;;;;;;;0.77;49.48;98476.91;5063205;28;20048;-64
2023/03/02 09:10:36;;;;;;;1.88;1.70;;;;;;;1.10;49.25;98480.38;5065372;28;20068;-64
2023/03/02 09:13:01;;;;;;;4.25;2.05;;;;;;;1.29;48.77;98470.13;5082835;28;20081;-63
2023/03/02 09:15:27;;;;;;;5.10;2.20;;;;;;;1.26;48.40;98481.78;5064736;28;20108;-65
2023/03/02 09:17:53;;;;;;;2.80;1.90;;;;;;;1.28;48.64;98474.56;5091029;28;20085;-65
2023/03/02 09:20:19;;;;;;;3.80;2.25;;;;;;;1.38;48.05;98479.38;5091987;28;20424;-67
2023/03/02 09:22:49;;;;;;;4.95;2.30;;;;;;;1.14;47.93;98478.16;5084757;28;20036;-63
2023/03/02 09:25:16;;;;;;;2.92;2.20;;;;;;;1.04;48.13;98469.94;5055025;28;20044;-64
2023/03/02 09:27:41;;;;;;;3.75;2.30;;;;;;;1.11;47.77;98461.09;5084127;28;20032;-65
2023/03/02 09:30:08;;;;;;;1.85;1.67;;;;;;;1.33;47.06;98448.66;5086830;28;20049;-66
2023/03/02 09:32:34;;;;;;;3.05;1.67;;;;;;;1.49;46.91;98437.00;5078773;28;20484;-64
2023/03/02 09:34:59;;;;;;;2.95;1.85;;;;;;;1.62;45.34;98441.44;5079378;28;20041;-66
2023/03/02 09:37:27;;;;;;;2.70;1.60;;;;;;;1.75;46.08;98432.75;5078427;28;20397;-65
2023/03/02 09:39:52;;;;;;;1.98;1.80;;;;;;;1.84;45.43;98438.56;5072253;28;20138;-63
2023/03/02 09:42:42;;;;;;;3.28;1.95;;;;;;;2.02;44.69;98438.72;5087399;28;20199;-64
2023/03/02 09:45:30;;;;;;;3.00;1.80;;;;;;;1.79;44.81;98444.41;5048559;28;20128;-65
2023/03/02 09:48:15;;;;;;;5.68;2.33;;;;;;;1.76;44.73;98439.59;5067821;28;20097;-64
2023/03/02 09:51:10;;;;;;;3.90;1.92;;;;;;;1.48;45.83;98427.56;5092133;28;20056;-63
2023/03/02 09:53:40;;;;;;;11.60;3.00;;;;;;;1.09;46.91;98426.56;5092095;28;20535;-65
2023/03/02 09:56:13;;;;;;;13.73;2.40;;;;;;;1.22;45.55;98430.19;5091719;28;20268;-65
2023/03/02 09:58:40;;;;;;;11.23;2.08;;;;;;;1.39;46.00;98422.75;5091764;28;20041;-65
2023/03/02 10:01:14;;;;;;;3.15;1.83;;;;;;;1.44;45.61;98415.09;5092678;28;20075;-67
2023/03/02 10:03:51;;;;;;;1.85;1.52;;;;;;;1.58;45.27;98419.31;5073595;28;20104;-64
2023/03/02 10:06:17;;;;;;;4.93;1.90;;;;;;;1.71;45.53;98411.47;5072434;28;20550;-65
2023/03/02 10:08:43;;;;;;;5.32;2.38;;;;;;;1.91;45.09;98411.44;5092784;28;20044;-64
2023/03/02 10:11:30;;;;;;;3.25;1.70;;;;;;;2.25;44.30;98406.88;5091910;28;20094;-66
2023/03/02 10:13:56;;;;;;;3.13;1.73;;;;;;;2.28;44.50;98399.41;5072238;28;20048;-65
2023/03/02 10:16:45;;;;;;;8.77;2.42;;;;;;;2.37;43.87;98393.97;5093222;28;20058;-65
2023/03/02 10:19:32;;;;;;;3.13;2.00;;;;;;;2.47;43.74;98395.13;5090339;28;20040;-66
2023/03/02 10:22:10;;;;;;;2.72;2.13;;;;;;;2.53;43.69;98392.66;5089399;28;20522;-65
2023/03/02 10:24:46;;;;;;;2.58;1.80;;;;;;;2.62;43.76;98394.84;5091221;28;20131;-66
2023/03/02 10:27:52;;;;;;;4.57;2.05;;;;;;;2.47;43.73;98374.19;5042191;28;20083;-67
2023/03/02 10:30:26;;;;;;;8.02;2.17;;;;;;;2.46;44.06;98388.28;5009185;28;20057;-66
2023/03/02 10:32:55;;;;;;;2.47;1.95;;;;;;;2.64;43.68;98374.47;5078142;28;20412;-69
2023/03/02 10:35:23;;;;;;;2.97;2.00;;;;;;;2.60;43.28;98372.50;5090074;28;20039;-67
2023/03/02 10:38:11;;;;;;;2.60;2.13;;;;;;;2.55;44.19;98362.66;5089732;28;20622;-67
2023/03/02 10:40:39;;;;;;;2.22;1.90;;;;;;;2.44;43.70;98347.63;5090218;28;20130;-67
2023/03/02 10:43:06;;;;;;;2.83;2.00;;;;;;;2.45;43.51;98357.91;5072078;28;20043;-65
2023/03/02 10:45:32;;;;;;;4.30;2.03;;;;;;;2.40;44.25;98343.84;5089905;28;20178;-66
2023/03/02 10:48:12;;;;;;;4.43;2.78;;;;;;;2.55;43.72;98343.56;5092109;28;20135;-66
2023/03/02 10:50:38;;;;;;;2.87;2.00;;;;;;;2.45;43.98;98336.97;5090921;28;20067;-67
2023/03/02 10:53:07;;;;;;;3.50;1.98;;;;;;;2.58;43.28;98327.44;5089373;28;20294;-66
2023/03/02 10:55:34;;;;;;;2.17;2.00;;;;;;;2.44;43.64;98331.94;5088703;28;20048;-67
2023/03/02 10:58:01;;;;;;;2.92;2.20;;;;;;;2.35;44.12;98339.22;5082219;28;20040;-66
2023/03/02 11:00:29;;;;;;;2.45;2.10;;;;;;;2.06;44.70;98319.69;5088752;28;20052;-66
2023/03/02 11:03:16;;;;;;;3.33;2.08;;;;;;;2.03;45.13;98325.34;5051218;28;20045;-65
2023/03/02 11:05:44;;;;;;;4.30;1.88;;;;;;;2.01;44.91;98320.31;5066789;28;20068;-65
2023/03/02 11:08:18;;;;;;;5.53;2.25;;;;;;;2.02;45.33;98300.19;5034428;28;20085;-65
2023/03/02 11:10:54;;;;;;;2.63;2.20;;;;;;;1.79;45.53;98291.06;5084362;28;20044;-65
2023/03/02 11:13:32;;;;;;;4.47;2.25;;;;;;;1.78;45.98;98299.91;5058898;28;20043;-63
2023/03/02 11:15:59;;;;;;;3.67;2.40;;;;;;;1.71;45.74;98287.88;5086988;28;20040;-65
2023/03/02 11:18:28;;;;;;;2.70;2.28;;;;;;;1.85;45.39;98283.38;5086153;28;20043;-65
2023/03/02 11:20:58;;;;;;;2.78;2.10;;;;;;;1.94;45.74;98288.19;5088422;28;20055;-67
2023/03/02 11:23:37;;;;;;;4.45;2.05;;;;;;;1.94;45.37;98279.53;5069851;28;20347;-66
2023/03/02 11:26:21;;;;;;;4.05;2.20;;;;;;;1.87;45.57;98273.53;5087428;28;20043;-66
2023/03/02 11:29:09;;;;;;;3.55;2.20;;;;;;;1.67;46.38;98258.72;5088383;28;20598;-67
2023/03/02 11:31:51;;;;;;;2.58;2.13;;;;;;;1.61;46.19;98267.41;5059230;28;20058;-66
2023/03/02 11:34:56;;;;;;;3.25;2.35;;;;;;;1.50;46.28;98279.31;5090881;28;20623;-66
2023/03/02 11:37:29;;;;;;;3.53;2.33;;;;;;;1.66;46.70;98285.09;5054678;28;20043;-66
2023/03/02 11:40:01;;;;;;;4.28;2.60;;;;;;;1.74;46.60;98272.59;5087210;28;20044;-67
2023/03/02 11:42:32;;;;;;;5.10;2.28;;;;;;;1.79;46.80;98277.19;5089595;28;20047;-66
2023/03/02 11:45:20;;;;;;;4.63;2.63;;;;;;;1.83;46.88;98275.78;5090298;28;20150;-66